Terminal Aerodrome Forecast
Issued by NWS Tampa Bay Area, FL

Home | Current Version | Previous Version | Text Only | Print | Product List | Glossary On
Versions: 1 2 3 4 5 6 7 8 9 10 11 12 13 14 15 16 17 18 19 20 21 22 23 24 25 26
000
FTUS42 KTBW 181100
TAFTPA
TAF
KTPA 181120Z 1812/1912 VRB03KT P6SM FEW015 FEW250
     FM181500 VRB05KT P6SM SCT030 SCT250
     FM181800 28007KT P6SM VCTS SCT045CB SCT150
     FM190000 VRB04KT P6SM SCT040 BKN250
     FM190600 VRB04KT P6SM VCSH SCT030 BKN100=

USA.gov is the U.S. government's official web portal to all federal, state and local government web resources and services.